createdAt,value
2023-03-08T00:01:22.530Z,14.30
2023-03-08T00:06:23.623Z,14.20
2023-03-08T00:11:24.826Z,13.10
2023-03-08T00:16:27.333Z,14.20
2023-03-08T00:21:26.812Z,13.80
2023-03-08T00:26:28.008Z,13.90
2023-03-08T00:31:29.275Z,16.20
2023-03-08T00:36:30.497Z,13.70
2023-03-08T00:41:31.718Z,13.70
2023-03-08T00:46:32.928Z,17.40
2023-03-08T00:51:34.088Z,13.60
2023-03-08T00:56:35.225Z,13.00
2023-03-08T01:01:36.408Z,14.90
2023-03-08T01:06:37.577Z,12.80
2023-03-08T01:11:38.773Z,16.20
2023-03-08T01:16:41.054Z,14.00
2023-03-08T01:21:40.239Z,15.40
2023-03-08T01:26:41.372Z,13.60
2023-03-08T01:31:42.486Z,16.60
2023-03-08T01:36:43.753Z,14.20
2023-03-08T01:41:45.945Z,16.10
2023-03-08T01:46:45.095Z,14.30
2023-03-08T01:51:46.284Z,15.40
2023-03-08T01:56:47.428Z,15.10
2023-03-08T02:01:48.599Z,16.70
2023-03-08T02:06:50.137Z,16.40
2023-03-08T02:11:49.286Z,16.40
2023-03-08T02:16:50.399Z,14.10
2023-03-08T02:21:51.496Z,16.00
2023-03-08T02:26:52.738Z,16.10
2023-03-08T02:31:54.324Z,16.00
2023-03-08T02:36:53.490Z,16.60
2023-03-08T02:41:54.648Z,14.90
2023-03-08T02:46:55.817Z,14.00
2023-03-08T02:51:57.048Z,16.00
2023-03-08T02:56:58.342Z,16.70
2023-03-08T03:01:59.543Z,14.10
2023-03-08T03:07:01.673Z,16.00
2023-03-08T03:12:00.830Z,14.10
2023-03-08T03:17:02.004Z,15.20
2023-03-08T03:22:03.176Z,15.10
2023-03-08T03:27:05.278Z,16.00
2023-03-08T03:32:05.424Z,16.60
2023-03-08T03:37:04.564Z,14.90
2023-03-08T03:42:05.722Z,17.10
2023-03-08T03:47:06.864Z,15.10
2023-03-08T03:52:08.020Z,17.50
2023-03-08T03:57:09.193Z,15.20
2023-03-08T04:02:10.350Z,16.90
2023-03-08T04:07:11.557Z,15.90
2023-03-08T04:12:12.653Z,16.50
2023-03-08T04:17:14.788Z,16.60
2023-03-08T04:22:13.928Z,16.20
2023-03-08T04:27:15.078Z,15.90
2023-03-08T04:32:16.227Z,15.80
2023-03-08T04:37:17.506Z,16.50
2023-03-08T04:42:18.673Z,16.90
2023-03-08T04:47:20.831Z,15.20
2023-03-08T04:52:20.000Z,16.80
2023-03-08T04:57:21.136Z,16.90
2023-03-08T05:02:22.318Z,17.10
2023-03-08T05:07:23.476Z,15.60
2023-03-08T05:12:24.619Z,15.50
2023-03-08T05:17:25.828Z,16.40
2023-03-08T05:22:27.012Z,16.50
2023-03-08T05:27:28.106Z,16.40
2023-03-08T05:32:29.339Z,15.40
2023-03-08T05:37:30.467Z,16.20
2023-03-08T05:42:31.704Z,17.10
2023-03-08T05:47:32.816Z,15.20
2023-03-08T05:52:34.781Z,15.40
2023-03-08T05:57:33.979Z,18.50
2023-03-08T06:02:39.063Z,18.20
2023-03-08T06:07:36.198Z,16.90
2023-03-08T06:12:37.296Z,17.10
2023-03-08T06:17:41.417Z,17.70
2023-03-08T06:22:38.626Z,15.20
2023-03-08T06:27:39.760Z,15.90
2023-03-08T06:32:40.950Z,19.90
2023-03-08T06:37:43.081Z,17.00
2023-03-08T06:42:42.231Z,16.20
2023-03-08T06:47:43.406Z,17.80
2023-03-08T06:52:44.560Z,17.30
2023-03-08T06:57:45.684Z,16.60
2023-03-08T07:02:46.880Z,18.20
2023-03-08T07:07:48.084Z,14.90
2023-03-08T07:12:49.239Z,16.80
2023-03-08T07:17:51.358Z,17.40
2023-03-08T07:22:50.493Z,18.60
2023-03-08T07:27:51.642Z,20.30
2023-03-08T07:32:53.868Z,15.70
2023-03-08T07:37:53.113Z,14.60
2023-03-08T07:42:54.253Z,15.60
2023-03-08T07:47:55.431Z,14.10
2023-03-08T07:52:56.549Z,16.50
2023-03-08T07:57:58.749Z,16.50
2023-03-08T08:02:57.886Z,14.40
2023-03-08T08:07:59.016Z,15.00
2023-03-08T08:13:00.190Z,13.10
2023-03-08T08:18:01.656Z,15.40
2023-03-08T08:23:02.796Z,17.70
2023-03-08T08:28:02.997Z,14.10
2023-03-08T08:33:02.126Z,12.00
2023-03-08T08:38:04.251Z,12.50
2023-03-08T08:43:03.322Z,12.80
2023-03-08T08:48:05.470Z,12.30
2023-03-08T08:53:05.672Z,13.10
2023-03-08T08:58:05.771Z,16.40
2023-03-08T09:03:05.924Z,10.10
2023-03-08T09:08:05.070Z,16.30
2023-03-08T09:13:07.196Z,12.70
2023-03-08T09:18:06.302Z,9.30
2023-03-08T09:23:07.442Z,10.10
2023-03-08T09:28:08.766Z,13.10
2023-03-08T09:33:10.873Z,13.40
2023-03-08T09:38:09.987Z,14.80
2023-03-08T09:43:12.120Z,15.40
2023-03-08T09:48:11.432Z,16.70
2023-03-08T09:53:12.606Z,20.00
2023-03-08T09:58:13.703Z,18.10
2023-03-08T10:03:15.857Z,19.80
2023-03-08T10:08:15.968Z,16.30
2023-03-08T10:13:16.135Z,13.70
2023-03-08T10:18:16.471Z,10.40
2023-03-08T10:23:16.554Z,11.60
2023-03-08T10:28:15.728Z,12.20
2023-03-08T10:33:17.911Z,8.80
2023-03-08T10:38:17.002Z,9.50
2023-03-08T10:43:18.121Z,8.60
2023-03-08T10:48:19.364Z,10.20
2023-03-08T10:53:20.475Z,7.60
2023-03-08T10:58:22.600Z,7.90
2023-03-08T11:03:22.064Z,9.10
2023-03-08T11:08:21.221Z,10.50
2023-03-08T11:13:22.384Z,8.40
2023-03-08T11:18:24.503Z,8.70
2023-03-08T11:23:24.539Z,6.30
2023-03-08T11:28:23.643Z,9.20
2023-03-08T11:33:25.968Z,7.90
2023-03-08T11:38:25.177Z,9.20
2023-03-08T11:43:26.264Z,6.80
2023-03-08T11:48:27.398Z,6.20
2023-03-08T11:53:29.511Z,5.30
2023-03-08T11:58:29.645Z,7.40
2023-03-08T12:03:28.807Z,7.50
2023-03-08T12:08:29.967Z,9.00
2023-03-08T12:13:31.070Z,9.90
2023-03-08T12:18:32.163Z,8.00
2023-03-08T12:23:34.293Z,7.60
2023-03-08T12:28:33.378Z,8.90
2023-03-08T12:33:34.956Z,7.10
2023-03-08T12:38:38.036Z,7.70
2023-03-08T12:43:57.776Z,7.80
2023-03-08T12:48:36.010Z,6.00
2023-03-08T12:53:45.196Z,5.60
2023-03-08T12:58:38.293Z,7.40
2023-03-08T13:03:38.410Z,6.30
2023-03-08T13:08:38.962Z,5.60
2023-03-08T13:13:39.655Z,5.60
2023-03-08T13:18:39.935Z,4.60
2023-03-08T13:23:39.165Z,2.70
2023-03-08T13:28:47.006Z,3.10
2023-03-08T13:33:39.742Z,2.40
2023-03-08T13:38:40.898Z,1.70
2023-03-08T13:43:42.032Z,2.00
2023-03-08T13:48:43.152Z,1.90
2023-03-08T13:53:45.318Z,1.90
2023-03-08T13:58:44.423Z,1.90
2023-03-08T14:03:45.559Z,2.00
2023-03-08T14:08:47.698Z,1.20
2023-03-08T14:13:47.848Z,1.10
2023-03-08T14:18:47.945Z,1.90
2023-03-08T14:23:48.116Z,1.20
2023-03-08T14:28:48.250Z,1.50
2023-03-08T14:33:47.377Z,0.80
2023-03-08T14:38:50.484Z,1.90
2023-03-08T14:43:50.600Z,1.40
2023-03-08T14:48:50.039Z,1.70
2023-03-08T14:53:51.151Z,1.10
2023-03-08T14:58:52.274Z,1.00
2023-03-08T15:03:53.438Z,1.30
2023-03-08T15:08:54.621Z,3.70
2023-03-08T15:13:55.927Z,2.20
2023-03-08T15:18:57.085Z,1.50
2023-03-08T15:23:59.212Z,1.20
2023-03-08T15:28:58.300Z,1.90
2023-03-08T15:34:00.560Z,2.40
2023-03-08T15:38:59.737Z,1.50
2023-03-08T15:44:01.816Z,1.80
2023-03-08T15:49:01.919Z,1.80
2023-03-08T15:54:02.060Z,2.20
2023-03-08T15:59:02.169Z,2.80
2023-03-08T16:04:01.337Z,3.60
2023-03-08T16:09:03.509Z,2.60
2023-03-08T16:14:02.642Z,4.40
2023-03-08T16:19:03.750Z,3.40
2023-03-08T16:24:05.942Z,3.60
2023-03-08T16:29:05.061Z,3.70
2023-03-08T16:34:07.183Z,3.90
2023-03-08T16:39:07.372Z,4.10
2023-03-08T16:44:06.496Z,3.60
2023-03-08T16:49:08.685Z,2.20
2023-03-08T16:54:07.963Z,2.40
2023-03-08T16:59:10.120Z,2.20
2023-03-08T17:04:09.292Z,2.70
2023-03-08T17:09:11.901Z,2.80
2023-03-08T17:14:12.282Z,2.80
2023-03-08T17:19:12.625Z,4.70
2023-03-08T17:24:12.909Z,1.00
2023-03-08T17:29:14.269Z,1.30
2023-03-08T17:34:13.483Z,1.80
2023-03-08T17:39:15.764Z,0.80
2023-03-08T17:44:14.952Z,1.90
2023-03-08T17:49:17.295Z,2.50
2023-03-08T17:54:17.759Z,2.30
2023-03-08T17:59:17.269Z,1.40
2023-03-08T18:04:17.340Z,1.40
2023-03-08T18:09:18.565Z,3.00
2023-03-08T18:14:18.771Z,2.80
2023-03-08T18:19:18.284Z,1.60
2023-03-08T18:24:18.806Z,2.30
2023-03-08T18:29:18.249Z,2.30
2023-03-08T18:34:20.673Z,1.50
2023-03-08T18:39:20.875Z,2.10
2023-03-08T18:44:21.091Z,1.60
2023-03-08T18:49:20.349Z,0.90
2023-03-08T18:54:21.876Z,1.30
2023-03-08T18:59:28.406Z,1.50
2023-03-08T19:04:20.885Z,1.30
2023-03-08T19:09:22.136Z,2.20
2023-03-08T19:14:24.270Z,1.60
2023-03-08T19:19:24.701Z,1.00
2023-03-08T19:24:25.133Z,2.70
2023-03-08T19:30:44.558Z,1.60
2023-03-08T19:34:26.060Z,3.20
2023-03-08T19:39:26.624Z,3.20
2023-03-08T19:44:25.815Z,19.80
2023-03-08T19:49:27.350Z,4.30
2023-03-08T19:54:26.991Z,5.60
2023-03-08T19:59:26.554Z,11.20
2023-03-08T20:04:27.601Z,2.20
2023-03-08T20:09:27.921Z,1.60
2023-03-08T20:14:29.742Z,6.50
2023-03-08T20:19:29.165Z,1.90
2023-03-08T20:24:31.631Z,2.80
2023-03-08T20:29:30.882Z,1.50
2023-03-08T20:34:33.369Z,2.10
2023-03-08T20:39:33.907Z,1.50
2023-03-08T20:44:33.116Z,2.60
2023-03-08T20:49:35.331Z,3.50
2023-03-08T20:54:36.270Z,0.80
2023-03-08T20:59:36.818Z,5.30
2023-03-08T21:04:36.346Z,5.30
2023-03-08T21:09:35.889Z,3.40
2023-03-08T21:14:35.445Z,1.30
2023-03-08T21:19:35.037Z,1.60
2023-03-08T21:24:36.303Z,2.80
2023-03-08T21:29:35.605Z,1.40
2023-03-08T21:34:37.091Z,2.70
2023-03-08T21:39:49.441Z,2.80
2023-03-08T21:44:36.662Z,1.20
2023-03-08T21:49:39.263Z,0.90
2023-03-08T21:54:38.481Z,1.10
2023-03-08T21:59:39.712Z,1.50
2023-03-08T22:04:40.999Z,1.40
2023-03-08T22:09:42.264Z,1.30
2023-03-08T22:14:43.451Z,1.50
2023-03-08T22:19:44.579Z,2.30
2023-03-08T22:24:45.662Z,2.70
2023-03-08T22:29:46.838Z,1.00
2023-03-08T22:34:48.132Z,1.00
2023-03-08T22:39:49.312Z,2.80
2023-03-08T22:44:51.497Z,1.60
2023-03-08T22:49:50.665Z,1.60
2023-03-08T22:54:51.795Z,1.50
2023-03-08T22:59:54.000Z,2.00
2023-03-08T23:04:53.187Z,3.10
2023-03-08T23:09:54.355Z,1.90
2023-03-08T23:14:55.749Z,2.20
2023-03-08T23:19:56.914Z,0.90
2023-03-08T23:24:58.062Z,1.80
2023-03-08T23:30:00.186Z,0.70
2023-03-08T23:35:00.263Z,1.50
2023-03-08T23:39:59.432Z,2.00
2023-03-08T23:45:00.516Z,1.10
2023-03-08T23:50:03.248Z,1.70
2023-03-08T23:55:02.446Z,2.10
